sensor_id;sensor_type;location;lat;lon;timestamp;pressure;altitude;pressure_sealevel;temperature;humidity
40285;BME280;25997;50.214;19.354;2023-02-13T00:01:05;99753.28;;;0.82;66.42
40285;BME280;25997;50.214;19.354;2023-02-13T00:04:10;99748.59;;;0.78;66.69
40285;BME280;25997;50.214;19.354;2023-02-13T00:07:12;99745.59;;;0.74;66.58
40285;BME280;25997;50.214;19.354;2023-02-13T00:10:16;99743.38;;;0.68;67.24
40285;BME280;25997;50.214;19.354;2023-02-13T00:13:18;99738.81;;;0.66;67.31
40285;BME280;25997;50.214;19.354;2023-02-13T00:16:21;99744.41;;;0.70;67.13
40285;BME280;25997;50.214;19.354;2023-02-13T00:19:25;99744.41;;;0.70;67.21
40285;BME280;25997;50.214;19.354;2023-02-13T00:22:28;99753.34;;;0.74;66.98
40285;BME280;25997;50.214;19.354;2023-02-13T00:25:31;99753.34;;;0.74;66.92
40285;BME280;25997;50.214;19.354;2023-02-13T00:28:33;99744.53;;;0.72;66.93
40285;BME280;25997;50.214;19.354;2023-02-13T00:31:37;99755.66;;;0.71;66.96
40285;BME280;25997;50.214;19.354;2023-02-13T00:34:41;99758.72;;;0.67;67.60
40285;BME280;25997;50.214;19.354;2023-02-13T00:37:44;99753.97;;;0.71;67.63
40285;BME280;25997;50.214;19.354;2023-02-13T00:40:47;99757.47;;;0.72;67.84
40285;BME280;25997;50.214;19.354;2023-02-13T00:43:49;99749.09;;;0.74;67.79
40285;BME280;25997;50.214;19.354;2023-02-13T00:46:52;99743.28;;;0.77;67.83
40285;BME280;25997;50.214;19.354;2023-02-13T00:49:56;99744.22;;;0.77;67.87
40285;BME280;25997;50.214;19.354;2023-02-13T00:52:58;99741.44;;;0.84;67.84
40285;BME280;25997;50.214;19.354;2023-02-13T00:56:01;99739.25;;;0.89;67.52
40285;BME280;25997;50.214;19.354;2023-02-13T00:59:04;99733.72;;;0.94;67.15
40285;BME280;25997;50.214;19.354;2023-02-13T01:02:06;99733.50;;;0.83;68.05
40285;BME280;25997;50.214;19.354;2023-02-13T01:05:10;99723.94;;;0.82;68.40
40285;BME280;25997;50.214;19.354;2023-02-13T01:08:15;99722.91;;;0.80;68.23
40285;BME280;25997;50.214;19.354;2023-02-13T01:11:17;99724.44;;;0.78;68.77
40285;BME280;25997;50.214;19.354;2023-02-13T01:14:20;99726.53;;;0.82;68.52
40285;BME280;25997;50.214;19.354;2023-02-13T01:17:23;99724.22;;;0.85;68.96
40285;BME280;25997;50.214;19.354;2023-02-13T01:20:30;99717.38;;;0.85;69.13
40285;BME280;25997;50.214;19.354;2023-02-13T01:23:35;99704.50;;;0.95;68.66
40285;BME280;25997;50.214;19.354;2023-02-13T01:26:38;99711.97;;;0.92;69.15
40285;BME280;25997;50.214;19.354;2023-02-13T01:29:40;99718.06;;;0.93;69.28
40285;BME280;25997;50.214;19.354;2023-02-13T01:32:44;99703.22;;;1.00;69.04
40285;BME280;25997;50.214;19.354;2023-02-13T01:35:49;99709.59;;;1.04;69.16
40285;BME280;25997;50.214;19.354;2023-02-13T01:38:53;99701.63;;;1.11;68.94
40285;BME280;25997;50.214;19.354;2023-02-13T01:41:55;99707.34;;;1.17;68.85
40285;BME280;25997;50.214;19.354;2023-02-13T01:44:59;99702.28;;;1.18;68.74
40285;BME280;25997;50.214;19.354;2023-02-13T01:48:04;99700.31;;;1.16;69.20
40285;BME280;25997;50.214;19.354;2023-02-13T01:51:12;99708.78;;;1.23;68.93
40285;BME280;25997;50.214;19.354;2023-02-13T01:54:19;99707.59;;;1.20;69.25
40285;BME280;25997;50.214;19.354;2023-02-13T01:57:24;99709.13;;;1.18;69.21
40285;BME280;25997;50.214;19.354;2023-02-13T02:00:30;99694.41;;;1.17;69.31
40285;BME280;25997;50.214;19.354;2023-02-13T02:03:37;99690.50;;;1.12;69.99
40285;BME280;25997;50.214;19.354;2023-02-13T02:06:47;99687.41;;;1.16;69.38
40285;BME280;25997;50.214;19.354;2023-02-13T02:10:02;99690.38;;;1.10;69.82
40285;BME280;25997;50.214;19.354;2023-02-13T02:13:09;99686.09;;;1.11;70.19
40285;BME280;25997;50.214;19.354;2023-02-13T02:16:14;99688.94;;;1.14;69.78
40285;BME280;25997;50.214;19.354;2023-02-13T02:19:24;99681.06;;;1.12;70.23
40285;BME280;25997;50.214;19.354;2023-02-13T02:23:00;99680.78;;;1.09;70.66
40285;BME280;25997;50.214;19.354;2023-02-13T02:30:33;99663.53;;;1.29;70.15
40285;BME280;25997;50.214;19.354;2023-02-13T02:33:49;99666.47;;;1.23;70.52
40285;BME280;25997;50.214;19.354;2023-02-13T02:37:06;99676.06;;;1.24;70.54
40285;BME280;25997;50.214;19.354;2023-02-13T02:40:22;99671.38;;;1.20;70.77
40285;BME280;25997;50.214;19.354;2023-02-13T02:43:38;99660.56;;;1.24;70.53
40285;BME280;25997;50.214;19.354;2023-02-13T02:46:56;99664.94;;;1.25;70.63
40285;BME280;25997;50.214;19.354;2023-02-13T02:50:32;99670.09;;;1.15;71.31
40285;BME280;25997;50.214;19.354;2023-02-13T02:53:39;99663.47;;;1.18;71.10
40285;BME280;25997;50.214;19.354;2023-02-13T02:56:45;99660.72;;;1.07;71.75
40285;BME280;25997;50.214;19.354;2023-02-13T02:59:49;99662.66;;;1.09;71.72
40285;BME280;25997;50.214;19.354;2023-02-13T03:03:15;99677.78;;;1.05;72.42
40285;BME280;25997;50.214;19.354;2023-02-13T03:06:42;99674.69;;;1.09;72.38
40285;BME280;25997;50.214;19.354;2023-02-13T03:09:47;99675.47;;;1.08;72.42
40285;BME280;25997;50.214;19.354;2023-02-13T03:13:12;99677.34;;;1.19;71.98
40285;BME280;25997;50.214;19.354;2023-02-13T03:16:23;99681.34;;;1.15;72.33
40285;BME280;25997;50.214;19.354;2023-02-13T03:19:54;99667.41;;;1.23;71.93
40285;BME280;25997;50.214;19.354;2023-02-13T03:23:20;99666.69;;;1.16;72.53
40285;BME280;25997;50.214;19.354;2023-02-13T03:26:36;99673.97;;;1.20;72.27
40285;BME280;25997;50.214;19.354;2023-02-13T03:29:55;99671.94;;;1.26;71.98
40285;BME280;25997;50.214;19.354;2023-02-13T03:33:17;99675.69;;;1.30;71.82
40285;BME280;25997;50.214;19.354;2023-02-13T03:36:30;99678.97;;;1.37;71.68
40285;BME280;25997;50.214;19.354;2023-02-13T03:39:59;99668.22;;;1.43;71.45
40285;BME280;25997;50.214;19.354;2023-02-13T03:43:09;99675.84;;;1.41;71.40
40285;BME280;25997;50.214;19.354;2023-02-13T03:46:14;99686.09;;;1.40;71.60
40285;BME280;25997;50.214;19.354;2023-02-13T03:49:20;99675.84;;;1.41;71.89
40285;BME280;25997;50.214;19.354;2023-02-13T03:52:45;99675.75;;;1.50;71.42
40285;BME280;25997;50.214;19.354;2023-02-13T03:55:52;99679.88;;;1.48;71.88
40285;BME280;25997;50.214;19.354;2023-02-13T03:59:19;99683.41;;;1.58;71.66
40285;BME280;25997;50.214;19.354;2023-02-13T04:02:29;99681.44;;;1.56;71.58
40285;BME280;25997;50.214;19.354;2023-02-13T04:05:38;99686.56;;;1.64;71.37
40285;BME280;25997;50.214;19.354;2023-02-13T04:08:42;99682.25;;;1.65;71.17
40285;BME280;25997;50.214;19.354;2023-02-13T04:11:52;99677.22;;;1.66;71.35
40285;BME280;25997;50.214;19.354;2023-02-13T04:15:00;99683.56;;;1.70;71.25
40285;BME280;25997;50.214;19.354;2023-02-13T04:18:09;99676.31;;;1.76;71.19
40285;BME280;25997;50.214;19.354;2023-02-13T04:21:14;99670.91;;;1.83;71.08
40285;BME280;25997;50.214;19.354;2023-02-13T04:24:17;99676.59;;;1.89;70.95
40285;BME280;25997;50.214;19.354;2023-02-13T04:27:21;99681.00;;;1.90;70.71
40285;BME280;25997;50.214;19.354;2023-02-13T04:30:26;99684.38;;;1.89;70.84
40285;BME280;25997;50.214;19.354;2023-02-13T04:33:29;99682.84;;;1.91;70.84
40285;BME280;25997;50.214;19.354;2023-02-13T04:36:31;99682.97;;;1.92;70.99
40285;BME280;25997;50.214;19.354;2023-02-13T04:39:34;99679.22;;;1.99;70.66
40285;BME280;25997;50.214;19.354;2023-02-13T04:42:38;99687.63;;;1.96;70.69
40285;BME280;25997;50.214;19.354;2023-02-13T04:45:40;99682.97;;;1.92;71.01
40285;BME280;25997;50.214;19.354;2023-02-13T04:48:44;99680.75;;;1.87;71.16
40285;BME280;25997;50.214;19.354;2023-02-13T04:51:47;99672.72;;;1.84;71.31
40285;BME280;25997;50.214;19.354;2023-02-13T04:54:49;99674.28;;;1.82;71.26
40285;BME280;25997;50.214;19.354;2023-02-13T04:57:54;99674.00;;;1.79;71.33
40285;BME280;25997;50.214;19.354;2023-02-13T05:00:56;99683.44;;;1.78;71.39
40285;BME280;25997;50.214;19.354;2023-02-13T05:03:59;99684.25;;;1.77;71.51
40285;BME280;25997;50.214;19.354;2023-02-13T05:07:02;99673.09;;;1.78;71.65
40285;BME280;25997;50.214;19.354;2023-02-13T05:10:05;99674.66;;;1.76;71.83
40285;BME280;25997;50.214;19.354;2023-02-13T05:13:09;99660.00;;;1.67;72.21
40285;BME280;25997;50.214;19.354;2023-02-13T05:16:12;99654.41;;;1.62;72.41
40285;BME280;25997;50.214;19.354;2023-02-13T05:19:14;99660.25;;;1.60;72.23
40285;BME280;25997;50.214;19.354;2023-02-13T05:22:17;99653.78;;;1.55;72.46
40285;BME280;25997;50.214;19.354;2023-02-13T05:25:38;99654.81;;;1.57;72.34
40285;BME280;25997;50.214;19.354;2023-02-13T05:28:43;99653.72;;;1.45;72.67
40285;BME280;25997;50.214;19.354;2023-02-13T05:32:02;99651.31;;;1.46;72.66
40285;BME280;25997;50.214;19.354;2023-02-13T05:35:05;99660.75;;;1.46;72.70
40285;BME280;25997;50.214;19.354;2023-02-13T05:38:08;99658.44;;;1.49;72.78
40285;BME280;25997;50.214;19.354;2023-02-13T05:41:11;99677.06;;;1.55;72.51
40285;BME280;25997;50.214;19.354;2023-02-13T05:44:16;99675.53;;;1.57;72.44
40285;BME280;25997;50.214;19.354;2023-02-13T05:47:18;99673.06;;;1.58;72.49
40285;BME280;25997;50.214;19.354;2023-02-13T05:50:21;99682.38;;;1.56;72.71
40285;BME280;25997;50.214;19.354;2023-02-13T05:53:24;99677.06;;;1.65;72.35
40285;BME280;25997;50.214;19.354;2023-02-13T05:56:27;99676.97;;;1.63;72.65
40285;BME280;25997;50.214;19.354;2023-02-13T05:59:31;99679.44;;;1.72;72.06
40285;BME280;25997;50.214;19.354;2023-02-13T06:02:33;99680.84;;;1.68;72.40
40285;BME280;25997;50.214;19.354;2023-02-13T06:05:36;99680.34;;;1.72;72.30
40285;BME280;25997;50.214;19.354;2023-02-13T06:08:39;99672.97;;;1.77;72.14
40285;BME280;25997;50.214;19.354;2023-02-13T06:11:41;99676.31;;;1.66;72.67
40285;BME280;25997;50.214;19.354;2023-02-13T06:14:45;99680.06;;;1.69;72.50
40285;BME280;25997;50.214;19.354;2023-02-13T06:17:48;99678.91;;;1.76;72.45
40285;BME280;25997;50.214;19.354;2023-02-13T06:20:50;99695.75;;;1.81;72.34
40285;BME280;25997;50.214;19.354;2023-02-13T06:23:53;99691.09;;;1.87;72.06
40285;BME280;25997;50.214;19.354;2023-02-13T06:26:55;99688.66;;;1.88;72.20
40285;BME280;25997;50.214;19.354;2023-02-13T06:29:59;99696.94;;;2.05;71.90
40285;BME280;25997;50.214;19.354;2023-02-13T06:33:02;99688.16;;;2.13;71.59
40285;BME280;25997;50.214;19.354;2023-02-13T06:36:06;99695.00;;;2.22;71.47
40285;BME280;25997;50.214;19.354;2023-02-13T06:39:09;99696.59;;;2.30;71.25
40285;BME280;25997;50.214;19.354;2023-02-13T06:42:11;99696.84;;;2.33;71.20
40285;BME280;25997;50.214;19.354;2023-02-13T06:45:15;99698.50;;;2.43;71.09
40285;BME280;25997;50.214;19.354;2023-02-13T06:48:18;99692.81;;;2.47;70.88
40285;BME280;25997;50.214;19.354;2023-02-13T06:51:21;99692.44;;;2.52;70.78
40285;BME280;25997;50.214;19.354;2023-02-13T06:54:23;99689.94;;;2.54;70.55
40285;BME280;25997;50.214;19.354;2023-02-13T06:57:26;99692.97;;;2.48;70.62
40285;BME280;25997;50.214;19.354;2023-02-13T07:00:34;99694.75;;;2.49;70.53
40285;BME280;25997;50.214;19.354;2023-02-13T07:03:37;99706.28;;;2.43;70.73
40285;BME280;25997;50.214;19.354;2023-02-13T07:06:39;99710.72;;;2.44;70.68
40285;BME280;25997;50.214;19.354;2023-02-13T07:09:42;99707.97;;;2.52;70.62
40285;BME280;25997;50.214;19.354;2023-02-13T07:12:45;99709.66;;;2.52;70.34
40285;BME280;25997;50.214;19.354;2023-02-13T07:15:49;99699.03;;;2.49;70.73
40285;BME280;25997;50.214;19.354;2023-02-13T07:18:51;99700.22;;;2.52;70.69
40285;BME280;25997;50.214;19.354;2023-02-13T07:21:54;99708.13;;;2.44;70.88
40285;BME280;25997;50.214;19.354;2023-02-13T07:24:56;99707.09;;;2.42;70.94
40285;BME280;25997;50.214;19.354;2023-02-13T07:28:00;99699.56;;;2.45;71.00
40285;BME280;25997;50.214;19.354;2023-02-13T07:31:05;99706.69;;;2.47;70.95
40285;BME280;25997;50.214;19.354;2023-02-13T07:34:07;99703.41;;;2.60;71.23
40285;BME280;25997;50.214;19.354;2023-02-13T07:37:10;99704.88;;;2.66;70.78
40285;BME280;25997;50.214;19.354;2023-02-13T07:40:13;99700.47;;;2.55;70.97
40285;BME280;25997;50.214;19.354;2023-02-13T07:43:15;99695.41;;;2.57;71.29
40285;BME280;25997;50.214;19.354;2023-02-13T07:46:19;99694.13;;;2.62;71.25
40285;BME280;25997;50.214;19.354;2023-02-13T07:49:22;99702.50;;;2.69;71.02
40285;BME280;25997;50.214;19.354;2023-02-13T07:52:24;99704.06;;;2.88;70.85
40285;BME280;25997;50.214;19.354;2023-02-13T07:55:27;99694.19;;;2.84;70.53
40285;BME280;25997;50.214;19.354;2023-02-13T07:58:30;99691.72;;;2.85;70.61
40285;BME280;25997;50.214;19.354;2023-02-13T08:01:34;99693.56;;;2.86;70.60
40285;BME280;25997;50.214;19.354;2023-02-13T08:04:36;99685.78;;;2.76;70.75
40285;BME280;25997;50.214;19.354;2023-02-13T08:07:39;99684.84;;;2.75;70.80
40285;BME280;25997;50.214;19.354;2023-02-13T08:10:41;99691.09;;;2.78;71.12
40285;BME280;25997;50.214;19.354;2023-02-13T08:14:01;99693.69;;;2.78;70.87
40285;BME280;25997;50.214;19.354;2023-02-13T08:17:05;99690.56;;;2.71;71.28
40285;BME280;25997;50.214;19.354;2023-02-13T08:20:08;99691.88;;;2.77;71.18
40285;BME280;25997;50.214;19.354;2023-02-13T08:23:11;99690.19;;;2.77;71.33
40285;BME280;25997;50.214;19.354;2023-02-13T08:26:13;99693.44;;;2.95;71.00
40285;BME280;25997;50.214;19.354;2023-02-13T08:29:16;99705.97;;;3.00;70.91
40285;BME280;25997;50.214;19.354;2023-02-13T08:32:21;99703.25;;;3.09;70.61
40285;BME280;25997;50.214;19.354;2023-02-13T08:35:26;99706.34;;;3.15;70.42
40285;BME280;25997;50.214;19.354;2023-02-13T08:38:33;99704.78;;;3.17;70.18
40285;BME280;25997;50.214;19.354;2023-02-13T08:41:38;99703.84;;;3.26;70.22
40285;BME280;25997;50.214;19.354;2023-02-13T08:44:42;99697.47;;;3.23;69.70
40285;BME280;25997;50.214;19.354;2023-02-13T08:47:46;99707.09;;;3.14;69.99
40285;BME280;25997;50.214;19.354;2023-02-13T08:50:48;99704.78;;;3.17;70.01
40285;BME280;25997;50.214;19.354;2023-02-13T08:53:51;99706.53;;;3.28;69.78
40285;BME280;25997;50.214;19.354;2023-02-13T08:56:54;99705.09;;;3.31;69.70
40285;BME280;25997;50.214;19.354;2023-02-13T08:59:56;99706.50;;;3.38;69.93
40285;BME280;25997;50.214;19.354;2023-02-13T09:03:03;99703.88;;;3.48;69.79
40285;BME280;25997;50.214;19.354;2023-02-13T09:06:07;99700.28;;;3.36;70.06
40285;BME280;25997;50.214;19.354;2023-02-13T09:09:09;99701.75;;;3.54;69.74
40285;BME280;25997;50.214;19.354;2023-02-13T09:12:12;99703.41;;;3.64;69.81
40285;BME280;25997;50.214;19.354;2023-02-13T09:15:20;99701.09;;;3.57;69.95
40285;BME280;25997;50.214;19.354;2023-02-13T09:18:24;99700.50;;;3.71;69.74
40285;BME280;25997;50.214;19.354;2023-02-13T09:21:27;99707.94;;;3.66;69.84
40285;BME280;25997;50.214;19.354;2023-02-13T09:24:31;99699.31;;;3.77;69.73
40285;BME280;25997;50.214;19.354;2023-02-13T09:27:33;99699.47;;;3.90;69.73
40285;BME280;25997;50.214;19.354;2023-02-13T09:30:39;99692.63;;;4.02;69.57
40285;BME280;25997;50.214;19.354;2023-02-13T09:33:47;99705.56;;;4.12;69.42
40285;BME280;25997;50.214;19.354;2023-02-13T09:36:50;99704.69;;;4.24;69.43
40285;BME280;25997;50.214;19.354;2023-02-13T09:39:53;99700.22;;;4.33;69.39
40285;BME280;25997;50.214;19.354;2023-02-13T09:43:05;99688.28;;;4.25;68.79
40285;BME280;25997;50.214;19.354;2023-02-13T09:46:12;99682.56;;;4.40;69.15
40285;BME280;25997;50.214;19.354;2023-02-13T09:49:19;99685.38;;;4.32;68.58
40285;BME280;25997;50.214;19.354;2023-02-13T09:52:27;99690.38;;;4.40;69.06
40285;BME280;25997;50.214;19.354;2023-02-13T09:55:39;99684.44;;;4.53;68.66
40285;BME280;25997;50.214;19.354;2023-02-13T09:58:57;99697.19;;;4.50;68.24
40285;BME280;25997;50.214;19.354;2023-02-13T10:02:16;99682.16;;;4.46;68.20
40285;BME280;25997;50.214;19.354;2023-02-13T10:05:39;99696.38;;;4.39;68.34
40285;BME280;25997;50.214;19.354;2023-02-13T10:12:19;99688.13;;;4.11;69.34
40285;BME280;25997;50.214;19.354;2023-02-13T10:15:33;99682.59;;;4.07;69.33
40285;BME280;25997;50.214;19.354;2023-02-13T10:18:45;99682.16;;;4.12;69.50
40285;BME280;25997;50.214;19.354;2023-02-13T10:21:54;99682.56;;;3.95;70.05
40285;BME280;25997;50.214;19.354;2023-02-13T10:25:02;99681.00;;;3.97;69.88
40285;BME280;25997;50.214;19.354;2023-02-13T10:28:09;99669.13;;;4.01;69.61
40285;BME280;25997;50.214;19.354;2023-02-13T10:31:15;99676.19;;;3.92;69.81
40285;BME280;25997;50.214;19.354;2023-02-13T10:34:21;99662.44;;;3.93;70.10
40285;BME280;25997;50.214;19.354;2023-02-13T10:37:28;99663.16;;;4.02;69.86
40285;BME280;25997;50.214;19.354;2023-02-13T10:40:33;99657.50;;;4.07;69.68
40285;BME280;25997;50.214;19.354;2023-02-13T10:43:46;99649.47;;;4.04;69.84
40285;BME280;25997;50.214;19.354;2023-02-13T10:47:00;99643.25;;;4.02;69.83
40285;BME280;25997;50.214;19.354;2023-02-13T10:50:16;99645.50;;;3.98;69.83
40285;BME280;25997;50.214;19.354;2023-02-13T10:53:29;99645.31;;;4.06;69.94
40285;BME280;25997;50.214;19.354;2023-02-13T10:56:37;99639.00;;;4.14;69.81
40285;BME280;25997;50.214;19.354;2023-02-13T10:59:51;99645.78;;;4.12;70.13
40285;BME280;25997;50.214;19.354;2023-02-13T11:02:58;99639.97;;;4.05;70.42
40285;BME280;25997;50.214;19.354;2023-02-13T11:06:05;99632.31;;;4.06;70.50
40285;BME280;25997;50.214;19.354;2023-02-13T11:09:10;99644.75;;;4.10;70.46
40285;BME280;25997;50.214;19.354;2023-02-13T11:12:24;99622.69;;;4.05;70.73
40285;BME280;25997;50.214;19.354;2023-02-13T11:15:28;99623.78;;;3.86;71.41
40285;BME280;25997;50.214;19.354;2023-02-13T11:18:33;99618.56;;;3.86;71.52
40285;BME280;25997;50.214;19.354;2023-02-13T11:21:37;99611.03;;;3.67;72.08
40285;BME280;25997;50.214;19.354;2023-02-13T11:24:51;99616.19;;;3.77;71.75
40285;BME280;25997;50.214;19.354;2023-02-13T11:28:06;99621.75;;;3.93;71.20
40285;BME280;25997;50.214;19.354;2023-02-13T11:31:18;99623.81;;;3.97;70.87
40285;BME280;25997;50.214;19.354;2023-02-13T11:34:24;99617.34;;;3.92;71.18
40285;BME280;25997;50.214;19.354;2023-02-13T11:37:29;99614.25;;;3.75;71.56
40285;BME280;25997;50.214;19.354;2023-02-13T11:40:37;99607.88;;;3.93;71.24
40285;BME280;25997;50.214;19.354;2023-02-13T11:43:47;99601.56;;;4.01;71.27
40285;BME280;25997;50.214;19.354;2023-02-13T11:46:51;99597.06;;;4.10;71.38
40285;BME280;25997;50.214;19.354;2023-02-13T11:49:57;99607.91;;;4.16;71.19
40285;BME280;25997;50.214;19.354;2023-02-13T11:53:02;99608.03;;;4.06;71.33
40285;BME280;25997;50.214;19.354;2023-02-13T11:56:10;99600.38;;;4.19;70.97
40285;BME280;25997;50.214;19.354;2023-02-13T11:59:12;99601.50;;;4.34;70.75
40285;BME280;25997;50.214;19.354;2023-02-13T12:02:17;99600.84;;;4.37;70.86
40285;BME280;25997;50.214;19.354;2023-02-13T12:05:22;99602.78;;;4.39;70.75
40285;BME280;25997;50.214;19.354;2023-02-13T12:08:25;99594.19;;;4.52;70.38
40285;BME280;25997;50.214;19.354;2023-02-13T12:11:35;99591.22;;;4.47;70.27
40285;BME280;25997;50.214;19.354;2023-02-13T12:14:42;99588.41;;;4.56;70.13
40285;BME280;25997;50.214;19.354;2023-02-13T12:17:49;99572.94;;;4.46;69.96
40285;BME280;25997;50.214;19.354;2023-02-13T12:21:01;99564.31;;;4.47;69.79
40285;BME280;25997;50.214;19.354;2023-02-13T12:24:16;99575.75;;;4.49;69.52
40285;BME280;25997;50.214;19.354;2023-02-13T12:27:31;99581.63;;;4.46;69.47
40285;BME280;25997;50.214;19.354;2023-02-13T12:30:48;99588.63;;;4.36;69.97
40285;BME280;25997;50.214;19.354;2023-02-13T12:34:16;99582.06;;;4.29;70.15
40285;BME280;25997;50.214;19.354;2023-02-13T12:37:41;99585.34;;;4.27;70.22
40285;BME280;25997;50.214;19.354;2023-02-13T12:41:04;99577.41;;;4.25;70.37
40285;BME280;25997;50.214;19.354;2023-02-13T12:44:42;99569.16;;;4.19;70.82
40285;BME280;25997;50.214;19.354;2023-02-13T12:48:03;99568.59;;;4.23;70.81
40285;BME280;25997;50.214;19.354;2023-02-13T12:51:22;99570.88;;;4.30;70.74
40285;BME280;25997;50.214;19.354;2023-02-13T12:54:35;99566.81;;;4.34;70.63
40285;BME280;25997;50.214;19.354;2023-02-13T12:57:52;99570.31;;;4.34;70.75
40285;BME280;25997;50.214;19.354;2023-02-13T13:01:03;99564.88;;;4.31;70.91
40285;BME280;25997;50.214;19.354;2023-02-13T13:04:16;99552.56;;;4.29;71.11
40285;BME280;25997;50.214;19.354;2023-02-13T13:07:51;99564.53;;;4.38;70.96
40285;BME280;25997;50.214;19.354;2023-02-13T13:11:25;99556.88;;;4.28;71.13
40285;BME280;25997;50.214;19.354;2023-02-13T13:14:39;99550.84;;;4.29;71.12
40285;BME280;25997;50.214;19.354;2023-02-13T13:17:55;99555.97;;;4.39;70.96
40285;BME280;25997;50.214;19.354;2023-02-13T13:21:07;99557.78;;;4.29;71.35
40285;BME280;25997;50.214;19.354;2023-02-13T13:24:23;99562.16;;;4.30;71.43
40285;BME280;25997;50.214;19.354;2023-02-13T13:27:31;99557.09;;;4.19;71.90
40285;BME280;25997;50.214;19.354;2023-02-13T13:30:36;99572.22;;;4.25;71.96
40285;BME280;25997;50.214;19.354;2023-02-13T13:33:42;99555.97;;;4.39;71.63
40285;BME280;25997;50.214;19.354;2023-02-13T13:36:47;99557.75;;;4.40;71.22
40285;BME280;25997;50.214;19.354;2023-02-13T13:39:56;99550.88;;;4.41;71.13
40285;BME280;25997;50.214;19.354;2023-02-13T13:43:04;99556.63;;;4.37;71.45
40285;BME280;25997;50.214;19.354;2023-02-13T13:46:18;99568.19;;;4.29;71.93
40285;BME280;25997;50.214;19.354;2023-02-13T13:49:34;99566.13;;;4.36;72.07
40285;BME280;25997;50.214;19.354;2023-02-13T13:52:39;99572.34;;;4.50;71.92
40285;BME280;25997;50.214;19.354;2023-02-13T13:56:05;99567.16;;;4.50;71.83
40285;BME280;25997;50.214;19.354;2023-02-13T13:59:16;99565.56;;;4.52;71.89
40285;BME280;25997;50.214;19.354;2023-02-13T14:02:40;99562.75;;;4.60;71.49
40285;BME280;25997;50.214;19.354;2023-02-13T14:06:03;99552.09;;;4.69;71.32
40285;BME280;25997;50.214;19.354;2023-02-13T14:09:38;99549.63;;;4.59;71.08
40285;BME280;25997;50.214;19.354;2023-02-13T14:12:48;99554.84;;;4.59;71.26
40285;BME280;25997;50.214;19.354;2023-02-13T14:15:51;99544.00;;;4.64;71.02
40285;BME280;25997;50.214;19.354;2023-02-13T14:18:57;99539.56;;;4.63;71.02
40285;BME280;25997;50.214;19.354;2023-02-13T14:22:30;99543.50;;;4.70;70.65
40285;BME280;25997;50.214;19.354;2023-02-13T14:25:36;99536.50;;;4.69;71.02
40285;BME280;25997;50.214;19.354;2023-02-13T14:28:39;99542.25;;;4.65;70.86
40285;BME280;25997;50.214;19.354;2023-02-13T14:32:03;99538.59;;;4.73;70.54
40285;BME280;25997;50.214;19.354;2023-02-13T14:35:16;99543.78;;;4.73;70.56
40285;BME280;25997;50.214;19.354;2023-02-13T14:38:22;99531.22;;;4.79;70.59
40285;BME280;25997;50.214;19.354;2023-02-13T14:41:56;99536.84;;;4.85;70.02
40285;BME280;25997;50.214;19.354;2023-02-13T14:45:01;99529.19;;;4.86;69.40
40285;BME280;25997;50.214;19.354;2023-02-13T14:48:07;99532.19;;;4.69;69.53
40285;BME280;25997;50.214;19.354;2023-02-13T14:51:19;99529.75;;;4.71;69.31
40285;BME280;25997;50.214;19.354;2023-02-13T14:54:30;99517.41;;;4.68;69.32
40285;BME280;25997;50.214;19.354;2023-02-13T14:57:37;99517.63;;;4.71;69.14
40285;BME280;25997;50.214;19.354;2023-02-13T15:00:45;99520.47;;;4.74;69.28
40285;BME280;25997;50.214;19.354;2023-02-13T15:03:57;99521.13;;;4.83;69.04
40285;BME280;25997;50.214;19.354;2023-02-13T15:07:03;99524.66;;;4.72;68.72
40285;BME280;25997;50.214;19.354;2023-02-13T15:10:25;99504.63;;;4.48;68.27
40285;BME280;25997;50.214;19.354;2023-02-13T15:13:35;99518.66;;;4.04;68.26
40285;BME280;25997;50.214;19.354;2023-02-13T15:16:40;99522.88;;;3.80;68.73
40285;BME280;25997;50.214;19.354;2023-02-13T15:19:44;99530.47;;;3.77;68.95
40285;BME280;25997;50.214;19.354;2023-02-13T15:22:48;99522.66;;;3.77;68.53
40285;BME280;25997;50.214;19.354;2023-02-13T15:25:56;99521.16;;;3.58;68.28
40285;BME280;25997;50.214;19.354;2023-02-13T15:29:01;99507.09;;;3.56;68.42
40285;BME280;25997;50.214;19.354;2023-02-13T15:32:17;99517.34;;;3.42;68.51
40285;BME280;25997;50.214;19.354;2023-02-13T15:35:24;99528.22;;;3.49;68.52
40285;BME280;25997;50.214;19.354;2023-02-13T15:38:29;99522.25;;;3.28;68.63
40285;BME280;25997;50.214;19.354;2023-02-13T15:41:33;99517.75;;;3.25;68.71
40285;BME280;25997;50.214;19.354;2023-02-13T15:44:39;99524.06;;;3.29;68.68
40285;BME280;25997;50.214;19.354;2023-02-13T15:47:42;99520.44;;;3.27;68.73
40285;BME280;25997;50.214;19.354;2023-02-13T15:50:47;99524.75;;;3.26;68.76
40285;BME280;25997;50.214;19.354;2023-02-13T15:53:53;99515.59;;;3.20;68.88
40285;BME280;25997;50.214;19.354;2023-02-13T15:56:59;99519.06;;;3.20;68.80
40285;BME280;25997;50.214;19.354;2023-02-13T16:00:08;99530.09;;;3.18;68.85
40285;BME280;25997;50.214;19.354;2023-02-13T16:03:16;99531.28;;;3.21;68.91
40285;BME280;25997;50.214;19.354;2023-02-13T16:06:55;99528.38;;;3.28;68.49
40285;BME280;25997;50.214;19.354;2023-02-13T16:10:13;99536.47;;;3.21;68.84
40285;BME280;25997;50.214;19.354;2023-02-13T16:13:17;99533.13;;;3.12;69.30
40285;BME280;25997;50.214;19.354;2023-02-13T16:16:22;99537.88;;;3.18;69.53
40285;BME280;25997;50.214;19.354;2023-02-13T16:19:30;99539.59;;;3.17;69.50
40285;BME280;25997;50.214;19.354;2023-02-13T16:22:36;99546.41;;;3.27;69.57
40285;BME280;25997;50.214;19.354;2023-02-13T16:25:40;99545.88;;;3.31;69.20
40285;BME280;25997;50.214;19.354;2023-02-13T16:28:45;99556.13;;;3.29;69.28
40285;BME280;25997;50.214;19.354;2023-02-13T16:31:51;99553.31;;;3.26;69.20
40285;BME280;25997;50.214;19.354;2023-02-13T16:34:54;99555.75;;;3.25;69.21
40285;BME280;25997;50.214;19.354;2023-02-13T16:37:58;99564.34;;;3.24;69.34
40285;BME280;25997;50.214;19.354;2023-02-13T16:41:03;99573.63;;;3.10;68.82
40285;BME280;25997;50.214;19.354;2023-02-13T16:44:21;99555.47;;;3.10;68.79